Southport Airport
CYPG : now visible

Airfield :











YOU CAN JOIN US ON...

 
LOGIN :

Register | Disclaimer

   EN    FR    IT 

 









Legend :    VFR   Marginal VFR   IFR   Intensive IFR   Very Intensive IFR
Visi :
Ceiling :
>= 8 km
>= 3000ft
5 to 8 km
1000 to 3000 ft
1500m to 5 km
500 to 1000 ft
800 to 1500m
200 to 500 ft
< 800m
< 200 ft
Symbols :   Thunderstorms  Fog  Heavy snow  Heavy precipitations  Wind > 20 kt






- Airport Elevation : 885 ft
- IATA code : YPG


CYPG - Southport

CURRENT METAR :
  • 072000Z 15013G19KT 15SM OVC010 24/20 A2977 RMK SC8 DA2627FT SLP078

EXPIRED METARs :
  • 071900Z 15012G21KT 15SM BKN013 24/20 A2977 RMK SC7 DA2594FT SLP078
  • 071819Z 15010G15KT 15SM OVC011 23/20 A2977 RMK SC8 SLP080
  • 071800Z 15012KT 15SM OVC015 24/19 A2977 RMK SC8 DA2619FT SLP081

TAF AMD TAF CYPG
Valid from the 07 at 18:00 until the 08 at 06:00 UTC


071831Z 0718/0806 15012KT P6SM OVC015
TEMPO 0718/0723 4SM BR OVC008
PROB30 0720/0722 VRB15G30KT 3SM TSRA BR OVC015CB
FM072300 15008KT P6SM OVC012
BECMG 0723/0801 SCT012 BKN040
FM080200 16005KT P6SM BKN040 BKN120
PROB30 0805/0806 VRB15G25KT 2SM TSRA BR FEW015 BKN040CB RMK NXT FCST BY 080000Z
CZWG FIR / North America



MET'MAP, your aeronautical weather chart ! - Copyright ORBIFLY December 2007 - Disclaimer

ORBIFLY MET'MAP TEAM :

Programming & Development : Alexandra Zaïnal
Concept & original design : Baudouin d'Aumeries
Assistance for programming : Marc-Olivier Méhu
Technical & hardware support : Manuel Goepfert

Contact : metmap@orbifly.com




SOURCES & CREDITS :

   NOAA       Earth
Advisory